createdAt,value
2023-06-10T00:00:02.340Z,1014.05
2023-06-10T00:00:18.468Z,1014.1
2023-06-10T00:00:34.601Z,1014.05
2023-06-10T00:00:50.762Z,1014.11
2023-06-10T00:01:06.909Z,1014.06
2023-06-10T00:01:23.410Z,1014.07
2023-06-10T00:01:39.223Z,1014.07
2023-06-10T00:01:55.327Z,1014.08
2023-06-10T00:02:27.830Z,1014.05
2023-06-10T00:02:43.917Z,1014.11
2023-06-10T00:03:00.042Z,1014.06
2023-06-10T00:03:16.373Z,1014.05
2023-06-10T00:03:32.361Z,1014.07
2023-06-10T00:03:48.522Z,1014.09
2023-06-10T00:04:04.634Z,1014.05
2023-06-10T00:04:20.658Z,1014.05
2023-06-10T00:04:36.828Z,1014.07
2023-06-10T00:04:53.039Z,1014.09
2023-06-10T00:05:09.325Z,1014.07
2023-06-10T00:05:25.248Z,1014.04
2023-06-10T00:05:41.382Z,1014.07
2023-06-10T00:05:57.524Z,1014.08
2023-06-10T00:06:13.667Z,1014.06
2023-06-10T00:06:29.808Z,1014.07
2023-06-10T00:06:45.979Z,1014.07
2023-06-10T00:07:02.105Z,1014.1
2023-06-10T00:07:18.288Z,1014.09
2023-06-10T00:07:34.420Z,1014.13
2023-06-10T00:07:50.563Z,1014.13
2023-06-10T00:08:06.684Z,1014.14
2023-06-10T00:08:22.835Z,1014.16
2023-06-10T00:08:38.981Z,1014.18
2023-06-10T00:08:55.132Z,1014.14
2023-06-10T00:09:11.300Z,1014.14
2023-06-10T00:09:27.413Z,1014.13
2023-06-10T00:09:43.566Z,1014.15
2023-06-10T00:09:59.722Z,1014.13
2023-06-10T00:10:15.855Z,1014.1
2023-06-10T00:10:31.984Z,1014.12
2023-06-10T00:10:48.156Z,1014.14
2023-06-10T00:11:04.283Z,1014.13
2023-06-10T00:11:20.469Z,1014.08
2023-06-10T00:11:36.586Z,1014.11
2023-06-10T00:11:52.730Z,1014.15
2023-06-10T00:12:08.851Z,1014.1
2023-06-10T00:12:25.029Z,1014.12
2023-06-10T00:12:41.207Z,1014.08
2023-06-10T00:12:57.349Z,1014.1
2023-06-10T00:13:13.457Z,1014.08
2023-06-10T00:13:29.604Z,1014.1
2023-06-10T00:13:45.765Z,1014.11
2023-06-10T00:14:01.891Z,1014.08
2023-06-10T00:14:18.033Z,1014.1
2023-06-10T00:14:34.164Z,1014.08
2023-06-10T00:14:50.336Z,1014.1
2023-06-10T00:15:06.753Z,1014.08
2023-06-10T00:15:22.626Z,1014.09
2023-06-10T00:15:38.757Z,1014.13
2023-06-10T00:15:54.960Z,1014.05
2023-06-10T00:16:11.102Z,1014.03
2023-06-10T00:16:27.317Z,1014.1
2023-06-10T00:16:43.402Z,1014.12
2023-06-10T00:16:59.502Z,1014.07
2023-06-10T00:17:15.671Z,1014.07
2023-06-10T00:17:31.783Z,1014.09
2023-06-10T00:17:47.968Z,1014.07
2023-06-10T00:18:04.180Z,1014.07
2023-06-10T00:18:20.217Z,1014.08
2023-06-10T00:18:36.400Z,1014.04
2023-06-10T00:18:52.533Z,1014.07
2023-06-10T00:19:08.635Z,1014.02
2023-06-10T00:19:24.819Z,1014.03
2023-06-10T00:19:40.980Z,1014.04
2023-06-10T00:19:57.099Z,1014.06
2023-06-10T00:20:13.840Z,1014.05
2023-06-10T00:20:29.401Z,1014.06
2023-06-10T00:20:45.525Z,1014.04
2023-06-10T00:21:01.662Z,1014.03
2023-06-10T00:21:17.821Z,1014.05
2023-06-10T00:21:33.976Z,1014.06
2023-06-10T00:21:50.129Z,1014.04
2023-06-10T00:22:06.266Z,1014.05
2023-06-10T00:22:22.404Z,1014.03
2023-06-10T00:22:38.545Z,1014.01
2023-06-10T00:22:54.744Z,1014.03
2023-06-10T00:23:10.847Z,1014.02
2023-06-10T00:23:26.981Z,1014.01
2023-06-10T00:23:43.164Z,1014.04
2023-06-10T00:23:59.309Z,1014.04
2023-06-10T00:24:15.477Z,1014.01
2023-06-10T00:24:31.550Z,1014.04
2023-06-10T00:24:47.720Z,1014.05
2023-06-10T00:25:03.884Z,1014.04
2023-06-10T00:25:20.092Z,1014.02
2023-06-10T00:25:36.147Z,1014.08
2023-06-10T00:25:52.310Z,1014.03
2023-06-10T00:26:08.418Z,1014.04
2023-06-10T00:26:24.621Z,1014.03
2023-06-10T00:26:40.743Z,1014.08
2023-06-10T00:26:56.879Z,1014.09
2023-06-10T00:27:13.033Z,1014.04
2023-06-10T00:27:29.149Z,1014.08
2023-06-10T00:27:45.311Z,1014.08
2023-06-10T00:28:01.463Z,1014.07
2023-06-10T00:28:17.617Z,1014.08
2023-06-10T00:28:33.759Z,1014.1
2023-06-10T00:28:49.921Z,1014.15
2023-06-10T00:29:06.033Z,1014.15
2023-06-10T00:29:22.216Z,1014.12
2023-06-10T00:29:38.366Z,1014.1
2023-06-10T00:29:54.506Z,1014.13
2023-06-10T00:30:10.654Z,1014.13
2023-06-10T00:30:26.754Z,1014.12
2023-06-10T00:30:42.915Z,1014.14
2023-06-10T00:30:59.044Z,1014.16
2023-06-10T00:31:15.237Z,1014.12
2023-06-10T00:31:31.465Z,1014.15
2023-06-10T00:31:47.563Z,1014.11
2023-06-10T00:32:03.897Z,1014.13
2023-06-10T00:32:19.786Z,1014.11
2023-06-10T00:32:35.984Z,1014.15
2023-06-10T00:32:52.117Z,1014.13
2023-06-10T00:33:08.294Z,1014.13
2023-06-10T00:33:24.368Z,1014.12
2023-06-10T00:33:40.530Z,1014.15
2023-06-10T00:33:56.638Z,1014.17
2023-06-10T00:34:12.818Z,1014.17
2023-06-10T00:34:28.975Z,1014.17
2023-06-10T00:34:45.105Z,1014.18
2023-06-10T00:35:12.714Z,1014.14
2023-06-10T00:35:28.684Z,1014.16
2023-06-10T00:35:44.812Z,1014.11
2023-06-10T00:36:00.987Z,1014.12
2023-06-10T00:36:17.098Z,1014.12
2023-06-10T00:36:33.242Z,1014.08
2023-06-10T00:36:49.394Z,1014.07
2023-06-10T00:37:05.574Z,1014.04
2023-06-10T00:37:21.690Z,1014.07
2023-06-10T00:37:37.865Z,1014.05
2023-06-10T00:37:53.978Z,1014.06
2023-06-10T00:38:10.136Z,1014.03
2023-06-10T00:38:26.273Z,1014
2023-06-10T00:38:42.431Z,1014.03
2023-06-10T00:38:58.594Z,1014.03
2023-06-10T00:39:14.793Z,1014
2023-06-10T00:39:30.838Z,1014.06
2023-06-10T00:39:47.010Z,1014
2023-06-10T00:40:03.159Z,1014.05
2023-06-10T00:40:19.292Z,1014.05
2023-06-10T00:40:35.466Z,1013.99
2023-06-10T00:40:51.667Z,1014.02
2023-06-10T00:41:07.713Z,1014.01
2023-06-10T00:41:23.908Z,1014
2023-06-10T00:41:40.038Z,1014.02
2023-06-10T00:41:56.174Z,1014.02
2023-06-10T00:42:12.311Z,1014.03
2023-06-10T00:42:28.441Z,1014.01
2023-06-10T00:42:44.584Z,1014
2023-06-10T00:43:00.772Z,1014.01
2023-06-10T00:43:16.929Z,1014.02
2023-06-10T00:43:33.026Z,1014
2023-06-10T00:43:49.206Z,1013.99
2023-06-10T00:44:05.341Z,1014.05
2023-06-10T00:44:21.478Z,1014.04
2023-06-10T00:44:37.612Z,1014.05
2023-06-10T00:44:53.775Z,1014.07
2023-06-10T00:45:10.277Z,1014.05
2023-06-10T00:45:26.047Z,1014.06
2023-06-10T00:45:42.242Z,1014.02
2023-06-10T00:45:58.401Z,1014.04
2023-06-10T00:46:14.597Z,1014.07
2023-06-10T00:46:30.716Z,1014.1
2023-06-10T00:46:46.869Z,1014.14
2023-06-10T00:47:02.939Z,1014.09
2023-06-10T00:47:19.071Z,1014.14
2023-06-10T00:47:35.305Z,1014.16
2023-06-10T00:47:51.420Z,1014.15
2023-06-10T00:48:07.574Z,1014.11
2023-06-10T00:48:23.658Z,1014.08
2023-06-10T00:48:39.811Z,1014.07
2023-06-10T00:48:55.980Z,1014.02
2023-06-10T00:49:12.081Z,1014.03
2023-06-10T00:49:28.230Z,1014.01
2023-06-10T00:49:44.385Z,1014
2023-06-10T00:50:00.516Z,1013.99
2023-06-10T00:50:16.690Z,1013.95
2023-06-10T00:50:32.847Z,1014.01
2023-06-10T00:50:48.960Z,1014.01
2023-06-10T00:51:05.094Z,1014.03
2023-06-10T00:51:21.260Z,1014.06
2023-06-10T00:51:37.404Z,1014.05
2023-06-10T00:51:53.592Z,1014.03
2023-06-10T00:52:09.679Z,1014.03
2023-06-10T00:52:25.898Z,1014.03
2023-06-10T00:52:41.981Z,1014.05
2023-06-10T00:52:58.116Z,1014.07
2023-06-10T00:53:14.269Z,1014.04
2023-06-10T00:53:30.415Z,1014.05
2023-06-10T00:53:46.578Z,1014.02
2023-06-10T00:54:02.712Z,1014.04
2023-06-10T00:54:18.890Z,1014.04
2023-06-10T00:54:35.008Z,1014.07
2023-06-10T00:54:51.162Z,1014.05
2023-06-10T00:55:07.621Z,1014.03
2023-06-10T00:55:23.452Z,1014.04
2023-06-10T00:55:39.574Z,1014.09
2023-06-10T00:55:55.769Z,1014.06
2023-06-10T00:56:11.896Z,1014.08
2023-06-10T00:56:28.018Z,1014.08
2023-06-10T00:56:44.243Z,1014.03
2023-06-10T00:57:00.300Z,1014.1
2023-06-10T00:57:16.458Z,1014.08
2023-06-10T00:57:32.598Z,1014.09
2023-06-10T00:57:48.787Z,1014.07
2023-06-10T00:58:04.912Z,1014.09
2023-06-10T00:58:21.026Z,1014.07
2023-06-10T00:58:37.216Z,1014.08
2023-06-10T00:58:53.356Z,1014.08
2023-06-10T00:59:09.468Z,1014.06
2023-06-10T00:59:25.611Z,1014.08
2023-06-10T00:59:41.806Z,1014.09
2023-06-10T00:59:57.915Z,1014.12
2023-06-10T01:00:14.062Z,1014.14
2023-06-10T01:00:30.242Z,1014.12
2023-06-10T01:00:46.441Z,1014.13
2023-06-10T01:01:02.650Z,1014.13
2023-06-10T01:01:18.917Z,1014.11
2023-06-10T01:01:34.884Z,1014.15
2023-06-10T01:01:50.961Z,1014.18
2023-06-10T01:02:07.107Z,1014.14
2023-06-10T01:02:23.321Z,1014.15
2023-06-10T01:02:39.447Z,1014.14
2023-06-10T01:02:55.536Z,1014.15
2023-06-10T01:03:11.740Z,1014.17
2023-06-10T01:03:44.011Z,1014.16
2023-06-10T01:04:00.162Z,1014.14
2023-06-10T01:04:16.246Z,1014.18
2023-06-10T01:04:32.386Z,1014.14
2023-06-10T01:04:48.563Z,1014.18
2023-06-10T01:05:04.777Z,1014.13
2023-06-10T01:05:20.822Z,1014.13
2023-06-10T01:05:36.977Z,1014.14
2023-06-10T01:05:53.141Z,1014.16
2023-06-10T01:06:09.288Z,1014.13
2023-06-10T01:06:25.409Z,1014.06
2023-06-10T01:06:41.533Z,1014.12
2023-06-10T01:06:57.693Z,1014.08
2023-06-10T01:07:13.868Z,1014.1
2023-06-10T01:07:29.970Z,1014.1
2023-06-10T01:07:46.171Z,1014.13
2023-06-10T01:08:02.284Z,1014.1
2023-06-10T01:08:18.439Z,1014.13
2023-06-10T01:08:34.561Z,1014.1
2023-06-10T01:08:50.718Z,1014.17
2023-06-10T01:09:06.872Z,1014.16
2023-06-10T01:09:23.014Z,1014.16
2023-06-10T01:09:39.178Z,1014.19
2023-06-10T01:09:55.294Z,1014.18
2023-06-10T01:10:11.453Z,1014.16
2023-06-10T01:10:27.583Z,1014.16
2023-06-10T01:10:43.744Z,1014.19
2023-06-10T01:10:59.876Z,1014.18
2023-06-10T01:11:16.034Z,1014.2
2023-06-10T01:11:32.166Z,1014.16
2023-06-10T01:11:48.341Z,1014.17
2023-06-10T01:12:04.461Z,1014.19
2023-06-10T01:12:20.653Z,1014.2
2023-06-10T01:12:36.743Z,1014.15
2023-06-10T01:12:52.906Z,1014.2
2023-06-10T01:13:09.045Z,1014.19
2023-06-10T01:13:25.205Z,1014.17
2023-06-10T01:13:41.344Z,1014.2
2023-06-10T01:13:57.495Z,1014.15
2023-06-10T01:14:13.630Z,1014.16
2023-06-10T01:14:29.768Z,1014.19
2023-06-10T01:14:46.013Z,1014.16
2023-06-10T01:15:02.069Z,1014.15
2023-06-10T01:15:18.212Z,1014.18
2023-06-10T01:15:34.366Z,1014.16
2023-06-10T01:15:50.539Z,1014.12
2023-06-10T01:16:06.681Z,1014.15
2023-06-10T01:16:22.823Z,1014.13
2023-06-10T01:16:38.977Z,1014.13
2023-06-10T01:16:55.154Z,1014.14
2023-06-10T01:17:11.436Z,1014.11
2023-06-10T01:17:27.448Z,1014.1
2023-06-10T01:17:43.572Z,1014.1
2023-06-10T01:17:59.729Z,1014.06
2023-06-10T01:18:15.877Z,1014.06
2023-06-10T01:18:31.979Z,1014.07
2023-06-10T01:18:48.105Z,1014.07
2023-06-10T01:19:04.233Z,1014.03
2023-06-10T01:19:20.398Z,1014.06
2023-06-10T01:19:36.533Z,1014.05
2023-06-10T01:19:52.704Z,1014.05
2023-06-10T01:20:08.855Z,1014.04
2023-06-10T01:20:24.977Z,1014.05
2023-06-10T01:20:41.150Z,1014.08
2023-06-10T01:20:57.273Z,1014.1
2023-06-10T01:21:13.410Z,1014.07
2023-06-10T01:21:29.576Z,1014.1
2023-06-10T01:21:45.708Z,1014.12
2023-06-10T01:22:01.879Z,1014.11
2023-06-10T01:22:18.010Z,1014.15
2023-06-10T01:22:34.155Z,1014.16
2023-06-10T01:22:50.293Z,1014.17
2023-06-10T01:23:06.428Z,1014.22
2023-06-10T01:23:22.585Z,1014.19
2023-06-10T01:23:38.782Z,1014.17
2023-06-10T01:23:54.936Z,1014.17
2023-06-10T01:24:11.042Z,1014.18
2023-06-10T01:24:27.190Z,1014.19
2023-06-10T01:24:43.302Z,1014.22
2023-06-10T01:24:59.489Z,1014.2
2023-06-10T01:25:15.579Z,1014.17
2023-06-10T01:25:31.738Z,1014.19
2023-06-10T01:25:47.881Z,1014.2
2023-06-10T01:26:04.027Z,1014.18
2023-06-10T01:26:20.180Z,1014.2
2023-06-10T01:26:36.326Z,1014.16
2023-06-10T01:26:52.495Z,1014.17
2023-06-10T01:27:08.645Z,1014.17
2023-06-10T01:27:24.744Z,1014.18
2023-06-10T01:27:40.913Z,1014.15
2023-06-10T01:27:57.057Z,1014.19
2023-06-10T01:28:13.193Z,1014.19
2023-06-10T01:28:29.409Z,1014.2
2023-06-10T01:28:45.497Z,1014.18
2023-06-10T01:29:13.020Z,1014.22
2023-06-10T01:29:29.099Z,1014.2
2023-06-10T01:29:45.208Z,1014.18
2023-06-10T01:30:01.347Z,1014.2
2023-06-10T01:30:17.495Z,1014.16
2023-06-10T01:30:33.674Z,1014.2
2023-06-10T01:30:49.782Z,1014.16
2023-06-10T01:31:22.142Z,1014.17
2023-06-10T01:31:38.286Z,1014.23
2023-06-10T01:31:54.368Z,1014.19
2023-06-10T01:32:10.504Z,1014.19
2023-06-10T01:32:26.716Z,1014.22
2023-06-10T01:32:42.851Z,1014.17
2023-06-10T01:32:59.003Z,1014.22
2023-06-10T01:33:15.179Z,1014.19
2023-06-10T01:33:31.236Z,1014.23
2023-06-10T01:33:47.422Z,1014.22
2023-06-10T01:34:03.533Z,1014.22
2023-06-10T01:34:19.698Z,1014.21
2023-06-10T01:34:51.970Z,1014.21
2023-06-10T01:35:08.364Z,1014.22
2023-06-10T01:35:24.277Z,1014.19
2023-06-10T01:35:40.443Z,1014.2
2023-06-10T01:35:56.569Z,1014.22
2023-06-10T01:36:12.726Z,1014.21
2023-06-10T01:36:28.835Z,1014.26
2023-06-10T01:36:44.996Z,1014.24
2023-06-10T01:37:01.165Z,1014.24
2023-06-10T01:37:17.299Z,1014.24
2023-06-10T01:37:33.427Z,1014.26
2023-06-10T01:37:49.564Z,1014.25
2023-06-10T01:38:05.705Z,1014.23
2023-06-10T01:38:21.869Z,1014.25
2023-06-10T01:38:38.018Z,1014.28
2023-06-10T01:38:54.147Z,1014.25
2023-06-10T01:39:10.315Z,1014.24
2023-06-10T01:39:26.470Z,1014.28
2023-06-10T01:39:42.948Z,1014.24
2023-06-10T01:39:58.735Z,1014.26
2023-06-10T01:40:14.880Z,1014.28
2023-06-10T01:40:31.062Z,1014.26
2023-06-10T01:40:47.216Z,1014.24
2023-06-10T01:41:03.316Z,1014.24
2023-06-10T01:41:19.493Z,1014.32
2023-06-10T01:41:35.607Z,1014.31
2023-06-10T01:41:51.760Z,1014.26
2023-06-10T01:42:07.947Z,1014.26
2023-06-10T01:42:24.064Z,1014.23
2023-06-10T01:42:40.182Z,1014.22
2023-06-10T01:42:56.348Z,1014.2
2023-06-10T01:43:12.478Z,1014.21
2023-06-10T01:43:28.614Z,1014.19
2023-06-10T01:43:44.774Z,1014.19
2023-06-10T01:44:00.917Z,1014.2
2023-06-10T01:44:17.058Z,1014.18
2023-06-10T01:44:33.201Z,1014.17
2023-06-10T01:44:49.355Z,1014.21
2023-06-10T01:45:05.509Z,1014.18
2023-06-10T01:45:21.639Z,1014.24
2023-06-10T01:45:37.807Z,1014.22
2023-06-10T01:45:53.945Z,1014.21
2023-06-10T01:46:10.138Z,1014.22
2023-06-10T01:46:26.315Z,1014.21
2023-06-10T01:46:42.442Z,1014.2
2023-06-10T01:46:58.607Z,1014.2
2023-06-10T01:47:14.701Z,1014.18
2023-06-10T01:47:30.905Z,1014.22
2023-06-10T01:47:46.984Z,1014.18
2023-06-10T01:48:03.213Z,1014.22
2023-06-10T01:48:19.270Z,1014.21
2023-06-10T01:48:35.443Z,1014.19
2023-06-10T01:48:51.551Z,1014.19
2023-06-10T01:49:07.693Z,1014.22
2023-06-10T01:49:23.822Z,1014.25
2023-06-10T01:49:39.971Z,1014.24
2023-06-10T01:49:56.153Z,1014.23
2023-06-10T01:50:12.290Z,1014.23
2023-06-10T01:50:28.419Z,1014.25
2023-06-10T01:50:44.567Z,1014.3
2023-06-10T01:51:00.720Z,1014.27
2023-06-10T01:51:16.862Z,1014.23
2023-06-10T01:51:33.022Z,1014.25
2023-06-10T01:51:49.145Z,1014.27
2023-06-10T01:52:05.299Z,1014.26
2023-06-10T01:52:21.438Z,1014.28
2023-06-10T01:52:37.613Z,1014.25
2023-06-10T01:52:53.722Z,1014.29
2023-06-10T01:53:09.874Z,1014.25
2023-06-10T01:53:26.013Z,1014.25
2023-06-10T01:53:42.183Z,1014.26
2023-06-10T01:53:58.335Z,1014.26
2023-06-10T01:54:14.444Z,1014.26
2023-06-10T01:54:30.654Z,1014.24
2023-06-10T01:54:46.746Z,1014.26
2023-06-10T01:55:02.918Z,1014.25
2023-06-10T01:55:19.019Z,1014.26
2023-06-10T01:55:35.168Z,1014.23
2023-06-10T01:55:51.341Z,1014.25
2023-06-10T01:56:07.510Z,1014.26
2023-06-10T01:56:23.617Z,1014.24
2023-06-10T01:56:39.808Z,1014.27
2023-06-10T01:56:55.914Z,1014.25
2023-06-10T01:57:12.077Z,1014.26
2023-06-10T01:57:28.203Z,1014.27
2023-06-10T01:57:44.353Z,1014.29
2023-06-10T01:58:00.495Z,1014.23
2023-06-10T01:58:16.639Z,1014.29
2023-06-10T01:58:32.806Z,1014.3
2023-06-10T01:58:48.913Z,1014.32
2023-06-10T01:59:05.074Z,1014.29
2023-06-10T01:59:21.209Z,1014.35
2023-06-10T01:59:37.372Z,1014.33
2023-06-10T01:59:53.501Z,1014.33
2023-06-10T02:00:09.666Z,1014.3
2023-06-10T02:00:25.806Z,1014.33
2023-06-10T02:00:41.955Z,1014.32
2023-06-10T02:00:58.120Z,1014.32
2023-06-10T02:01:14.263Z,1014.31
2023-06-10T02:01:30.415Z,1014.29
2023-06-10T02:01:46.546Z,1014.31
2023-06-10T02:02:02.700Z,1014.33
2023-06-10T02:02:18.810Z,1014.3
2023-06-10T02:02:35.123Z,1014.32
2023-06-10T02:02:51.150Z,1014.32
2023-06-10T02:03:07.292Z,1014.31
2023-06-10T02:03:23.603Z,1014.31
2023-06-10T02:03:39.674Z,1014.29
2023-06-10T02:03:55.766Z,1014.3
2023-06-10T02:04:11.849Z,1014.26
2023-06-10T02:04:27.971Z,1014.29
2023-06-10T02:04:44.132Z,1014.29
2023-06-10T02:05:00.297Z,1014.29
2023-06-10T02:05:16.412Z,1014.29
2023-06-10T02:05:32.618Z,1014.25
2023-06-10T02:05:48.705Z,1014.26
2023-06-10T02:06:04.875Z,1014.29
2023-06-10T02:06:21.003Z,1014.28
2023-06-10T02:06:37.157Z,1014.24
2023-06-10T02:06:53.290Z,1014.26
2023-06-10T02:07:09.442Z,1014.23
2023-06-10T02:07:25.781Z,1014.23
2023-06-10T02:07:41.731Z,1014.27
2023-06-10T02:07:57.894Z,1014.25
2023-06-10T02:08:14.021Z,1014.26
2023-06-10T02:08:30.202Z,1014.24
2023-06-10T02:08:46.310Z,1014.23
2023-06-10T02:09:02.464Z,1014.24
2023-06-10T02:09:18.598Z,1014.25
2023-06-10T02:09:34.769Z,1014.25
2023-06-10T02:09:50.924Z,1014.24
2023-06-10T02:10:07.034Z,1014.25
2023-06-10T02:10:23.191Z,1014.23
2023-06-10T02:10:39.333Z,1014.28
2023-06-10T02:10:55.497Z,1014.25
2023-06-10T02:11:11.624Z,1014.22
2023-06-10T02:11:27.784Z,1014.2
2023-06-10T02:11:43.908Z,1014.21
2023-06-10T02:12:00.130Z,1014.22
2023-06-10T02:12:18.176Z,1014.25
2023-06-10T02:12:32.344Z,1014.2
2023-06-10T02:12:48.491Z,1014.19
2023-06-10T02:13:04.664Z,1014.21
2023-06-10T02:13:20.787Z,1014.16
2023-06-10T02:13:36.924Z,1014.18
2023-06-10T02:13:53.069Z,1014.15
2023-06-10T02:14:09.228Z,1014.17
2023-06-10T02:14:25.395Z,1014.15
2023-06-10T02:14:41.544Z,1014.18
2023-06-10T02:14:57.677Z,1014.16
2023-06-10T02:15:13.856Z,1014.17
2023-06-10T02:15:29.960Z,1014.15
2023-06-10T02:15:46.094Z,1014.17
2023-06-10T02:16:02.284Z,1014.17
2023-06-10T02:16:18.434Z,1014.18
2023-06-10T02:16:34.590Z,1014.15
2023-06-10T02:16:50.804Z,1014.19
2023-06-10T02:17:06.891Z,1014.17
2023-06-10T02:17:23.017Z,1014.17
2023-06-10T02:17:39.157Z,1014.19
2023-06-10T02:17:55.297Z,1014.22
2023-06-10T02:18:11.393Z,1014.21
2023-06-10T02:18:27.534Z,1014.19
2023-06-10T02:18:43.699Z,1014.22
2023-06-10T02:18:59.896Z,1014.23
2023-06-10T02:19:16.375Z,1014.23
2023-06-10T02:19:32.119Z,1014.21
2023-06-10T02:19:48.304Z,1014.23
2023-06-10T02:20:04.422Z,1014.26
2023-06-10T02:20:20.595Z,1014.24
2023-06-10T02:20:36.714Z,1014.27
2023-06-10T02:20:52.917Z,1014.26
2023-06-10T02:21:08.998Z,1014.21
2023-06-10T02:21:25.155Z,1014.2
2023-06-10T02:21:41.316Z,1014.23
2023-06-10T02:21:57.454Z,1014.28
2023-06-10T02:22:13.578Z,1014.22
2023-06-10T02:22:29.758Z,1014.23
2023-06-10T02:22:45.900Z,1014.26
2023-06-10T02:23:13.300Z,1014.25
2023-06-10T02:23:29.472Z,1014.24
2023-06-10T02:23:45.716Z,1014.26
2023-06-10T02:24:01.780Z,1014.23
2023-06-10T02:24:17.998Z,1014.23
2023-06-10T02:24:34.036Z,1014.21
2023-06-10T02:24:50.192Z,1014.23
2023-06-10T02:25:06.334Z,1014.23
2023-06-10T02:25:22.462Z,1014.24
2023-06-10T02:25:38.614Z,1014.19
2023-06-10T02:25:54.762Z,1014.22
2023-06-10T02:26:10.898Z,1014.2
2023-06-10T02:26:27.202Z,1014.18
2023-06-10T02:26:43.203Z,1014.2
2023-06-10T02:26:59.343Z,1014.2
2023-06-10T02:27:15.494Z,1014.2
2023-06-10T02:27:31.650Z,1014.16
2023-06-10T02:27:47.781Z,1014.19
2023-06-10T02:28:03.928Z,1014.22
2023-06-10T02:28:20.067Z,1014.24
2023-06-10T02:28:36.246Z,1014.21
2023-06-10T02:28:52.385Z,1014.23
2023-06-10T02:29:08.517Z,1014.22
2023-06-10T02:29:24.687Z,1014.22
2023-06-10T02:29:40.819Z,1014.21
2023-06-10T02:29:56.955Z,1014.2
2023-06-10T02:30:13.099Z,1014.23
2023-06-10T02:30:29.243Z,1014.22
2023-06-10T02:31:01.557Z,1014.25
2023-06-10T02:31:17.667Z,1014.23
2023-06-10T02:31:33.855Z,1014.22
2023-06-10T02:31:49.986Z,1014.24
2023-06-10T02:32:07.634Z,1014.26
2023-06-10T02:32:22.322Z,1014.27
2023-06-10T02:32:38.404Z,1014.27
2023-06-10T02:32:54.634Z,1014.23
2023-06-10T02:33:10.736Z,1014.23
2023-06-10T02:33:26.851Z,1014.22
2023-06-10T02:33:43.000Z,1014.25
2023-06-10T02:33:59.162Z,1014.24
2023-06-10T02:34:15.313Z,1014.23
2023-06-10T02:34:31.453Z,1014.26
2023-06-10T02:34:47.584Z,1014.26
2023-06-10T02:35:03.723Z,1014.25
2023-06-10T02:35:19.864Z,1014.25
2023-06-10T02:35:36.004Z,1014.25
2023-06-10T02:35:52.153Z,1014.24
2023-06-10T02:36:08.288Z,1014.26
2023-06-10T02:36:24.438Z,1014.25
2023-06-10T02:36:40.576Z,1014.23
2023-06-10T02:36:56.717Z,1014.27
2023-06-10T02:37:12.888Z,1014.25
2023-06-10T02:37:29.048Z,1014.27
2023-06-10T02:37:45.184Z,1014.24
2023-06-10T02:38:01.301Z,1014.25
2023-06-10T02:38:17.451Z,1014.26
2023-06-10T02:38:33.604Z,1014.28
2023-06-10T02:38:49.784Z,1014.23
2023-06-10T02:39:05.955Z,1014.26
2023-06-10T02:39:22.028Z,1014.24
2023-06-10T02:39:38.194Z,1014.23
2023-06-10T02:39:54.342Z,1014.24
2023-06-10T02:40:10.509Z,1014.24
2023-06-10T02:40:26.665Z,1014.25
2023-06-10T02:40:42.755Z,1014.27
2023-06-10T02:40:58.938Z,1014.28
2023-06-10T02:41:15.081Z,1014.26
2023-06-10T02:41:31.227Z,1014.27
2023-06-10T02:41:47.382Z,1014.25
2023-06-10T02:42:03.503Z,1014.29
2023-06-10T02:42:19.639Z,1014.25
2023-06-10T02:42:35.794Z,1014.26
2023-06-10T02:42:51.925Z,1014.28
2023-06-10T02:43:08.092Z,1014.31
2023-06-10T02:43:24.258Z,1014.26
2023-06-10T02:43:40.367Z,1014.35
2023-06-10T02:43:56.526Z,1014.28
2023-06-10T02:44:12.700Z,1014.29
2023-06-10T02:44:28.799Z,1014.26
2023-06-10T02:44:45.014Z,1014.31
2023-06-10T02:45:01.092Z,1014.31
2023-06-10T02:45:17.268Z,1014.3
2023-06-10T02:45:33.419Z,1014.26
2023-06-10T02:45:49.809Z,1014.24
2023-06-10T02:46:05.737Z,1014.25
2023-06-10T02:46:21.935Z,1014.27
2023-06-10T02:46:38.013Z,1014.27
2023-06-10T02:46:54.131Z,1014.23
2023-06-10T02:47:10.279Z,1014.25
2023-06-10T02:47:26.471Z,1014.21
2023-06-10T02:47:42.675Z,1014.26
2023-06-10T02:47:58.763Z,1014.26
2023-06-10T02:48:14.853Z,1014.28
2023-06-10T02:48:31.013Z,1014.27
2023-06-10T02:48:47.188Z,1014.25
2023-06-10T02:49:03.296Z,1014.28
2023-06-10T02:49:19.448Z,1014.25
2023-06-10T02:49:35.578Z,1014.28
2023-06-10T02:49:51.732Z,1014.24
2023-06-10T02:50:07.919Z,1014.23
2023-06-10T02:50:24.012Z,1014.29
2023-06-10T02:50:40.165Z,1014.25
2023-06-10T02:50:56.303Z,1014.22
2023-06-10T02:51:12.464Z,1014.24
2023-06-10T02:51:28.610Z,1014.2
2023-06-10T02:51:44.732Z,1014.23
2023-06-10T02:52:00.931Z,1014.21
2023-06-10T02:52:17.030Z,1014.18
2023-06-10T02:52:33.172Z,1014.2
2023-06-10T02:52:49.377Z,1014.2
2023-06-10T02:53:05.467Z,1014.2
2023-06-10T02:53:21.604Z,1014.21
2023-06-10T02:53:37.753Z,1014.21
2023-06-10T02:53:53.899Z,1014.27
2023-06-10T02:54:10.062Z,1014.22
2023-06-10T02:54:26.206Z,1014.23
2023-06-10T02:54:42.364Z,1014.21
2023-06-10T02:54:58.482Z,1014.25
2023-06-10T02:55:14.622Z,1014.24
2023-06-10T02:55:30.778Z,1014.23
2023-06-10T02:55:46.916Z,1014.26
2023-06-10T02:56:03.096Z,1014.25
2023-06-10T02:56:19.219Z,1014.24
2023-06-10T02:56:35.349Z,1014.24
2023-06-10T02:56:51.517Z,1014.24
2023-06-10T02:57:07.672Z,1014.26
2023-06-10T02:57:23.835Z,1014.29
2023-06-10T02:57:39.954Z,1014.25
2023-06-10T02:57:56.092Z,1014.24
2023-06-10T02:58:12.260Z,1014.26
2023-06-10T02:58:28.379Z,1014.26
2023-06-10T02:58:44.508Z,1014.24
2023-06-10T02:59:00.656Z,1014.29
2023-06-10T02:59:16.809Z,1014.29
2023-06-10T02:59:32.981Z,1014.25
2023-06-10T02:59:49.126Z,1014.29
2023-06-10T03:00:05.284Z,1014.25
2023-06-10T03:00:21.420Z,1014.32
2023-06-10T03:00:37.539Z,1014.29
2023-06-10T03:00:53.682Z,1014.31
2023-06-10T03:01:09.868Z,1014.32
2023-06-10T03:01:26.016Z,1014.31
2023-06-10T03:01:42.235Z,1014.3
2023-06-10T03:01:58.353Z,1014.33
2023-06-10T03:02:14.504Z,1014.31
2023-06-10T03:02:30.610Z,1014.31
2023-06-10T03:02:46.773Z,1014.29
2023-06-10T03:03:02.914Z,1014.33
2023-06-10T03:03:18.996Z,1014.32
2023-06-10T03:03:35.300Z,1014.36
2023-06-10T03:03:51.347Z,1014.34
2023-06-10T03:04:07.470Z,1014.31
2023-06-10T03:04:23.634Z,1014.33
2023-06-10T03:04:39.732Z,1014.3
2023-06-10T03:04:56.005Z,1014.28
2023-06-10T03:05:12.419Z,1014.29
2023-06-10T03:05:28.169Z,1014.33
2023-06-10T03:05:44.412Z,1014.3
2023-06-10T03:06:00.486Z,1014.33
2023-06-10T03:06:16.599Z,1014.32
2023-06-10T03:06:32.743Z,1014.32
2023-06-10T03:06:48.922Z,1014.25
2023-06-10T03:07:05.118Z,1014.25
2023-06-10T03:07:21.207Z,1014.23
2023-06-10T03:07:37.332Z,1014.25
2023-06-10T03:07:53.473Z,1014.3
2023-06-10T03:08:09.604Z,1014.25
2023-06-10T03:08:25.809Z,1014.32
2023-06-10T03:08:41.939Z,1014.26
2023-06-10T03:08:58.097Z,1014.27
2023-06-10T03:09:14.196Z,1014.31
2023-06-10T03:09:30.347Z,1014.32
2023-06-10T03:09:46.508Z,1014.33
2023-06-10T03:10:02.636Z,1014.33
2023-06-10T03:10:18.786Z,1014.35
2023-06-10T03:10:34.953Z,1014.34
2023-06-10T03:10:51.065Z,1014.33
2023-06-10T03:11:07.212Z,1014.34
2023-06-10T03:11:23.393Z,1014.37
2023-06-10T03:11:39.506Z,1014.34
2023-06-10T03:11:55.674Z,1014.37
2023-06-10T03:12:11.818Z,1014.36
2023-06-10T03:12:27.946Z,1014.35
2023-06-10T03:12:44.086Z,1014.36
2023-06-10T03:13:00.248Z,1014.38
2023-06-10T03:13:16.390Z,1014.36
2023-06-10T03:13:32.531Z,1014.38
2023-06-10T03:13:48.718Z,1014.37
2023-06-10T03:14:04.864Z,1014.39
2023-06-10T03:14:20.961Z,1014.36
2023-06-10T03:14:37.142Z,1014.33
2023-06-10T03:14:53.285Z,1014.37
2023-06-10T03:15:09.722Z,1014.37
2023-06-10T03:15:25.569Z,1014.36
2023-06-10T03:15:41.738Z,1014.36
2023-06-10T03:15:57.893Z,1014.36
2023-06-10T03:16:14.004Z,1014.39
2023-06-10T03:16:30.223Z,1014.41
2023-06-10T03:16:46.275Z,1014.44
2023-06-10T03:17:13.708Z,1014.41
2023-06-10T03:17:29.865Z,1014.44
2023-06-10T03:17:46.047Z,1014.42
2023-06-10T03:18:02.261Z,1014.43